Time;durP1;ratioP1;P1;durP2;ratioP2;P2;SDS_P1;SDS_P2;PMS_P1;PMS_P2;Temp;Humidity;BMP_temperature;BMP_pressure;BME280_temperature;BME280_humidity;BME280_pressure;Samples;Min_cycle;Max_cycle;Signal;HPM_P1;HPM_P2
2021/08/22 00:01:14;;;;;;;27.45;24.70;;;18.40;99.90;;;;;;4957499;28;20051;-56
2021/08/22 00:03:43;;;;;;;22.17;19.98;;;18.40;99.90;;;;;;4962210;28;20054;-56
2021/08/22 00:06:10;;;;;;;25.58;23.00;;;18.40;99.90;;;;;;4965987;28;20102;-54
2021/08/22 00:08:38;;;;;;;23.08;20.95;;;18.40;99.90;;;;;;4962568;28;20570;-56
2021/08/22 00:11:05;;;;;;;23.60;21.30;;;18.40;99.90;;;;;;4948711;28;20507;-56
2021/08/22 00:13:31;;;;;;;22.10;19.95;;;18.40;99.90;;;;;;4953261;28;20048;-55
2021/08/22 00:16:01;;;;;;;23.83;21.48;;;18.30;99.90;;;;;;4948934;28;20420;-55
2021/08/22 00:18:31;;;;;;;25.67;23.10;;;18.40;99.90;;;;;;4950766;28;20047;-56
2021/08/22 00:21:00;;;;;;;23.50;21.35;;;18.40;99.90;;;;;;4949774;28;20062;-56
2021/08/22 00:23:28;;;;;;;25.25;22.70;;;18.40;99.90;;;;;;4949824;29;20058;-56
2021/08/22 00:25:55;;;;;;;26.83;24.10;;;18.30;99.90;;;;;;4953167;28;20051;-56
2021/08/22 00:28:22;;;;;;;25.13;22.52;;;18.30;99.90;;;;;;4950368;28;20051;-55
2021/08/22 00:30:51;;;;;;;25.50;23.13;;;18.30;99.90;;;;;;4955827;28;20044;-56
2021/08/22 00:33:20;;;;;;;25.73;23.23;;;18.30;99.90;;;;;;4955312;28;20499;-56
2021/08/22 00:35:46;;;;;;;26.73;24.20;;;18.30;99.90;;;;;;4954931;28;20047;-56
2021/08/22 00:38:14;;;;;;;27.08;24.48;;;18.30;99.90;;;;;;4949632;29;20058;-55
2021/08/22 00:40:40;;;;;;;26.92;24.48;;;18.30;99.90;;;;;;4949440;28;20051;-54
2021/08/22 00:43:09;;;;;;;27.45;24.73;;;18.30;99.90;;;;;;4949636;28;20127;-55
2021/08/22 00:45:37;;;;;;;26.30;23.80;;;18.30;99.90;;;;;;4942748;28;20057;-55
2021/08/22 00:48:04;;;;;;;26.40;23.83;;;18.30;99.90;;;;;;4936479;28;20055;-56
2021/08/22 00:50:32;;;;;;;27.10;24.60;;;18.30;99.90;;;;;;4963549;28;20055;-56
2021/08/22 00:53:05;;;;;;;26.00;23.70;;;18.30;99.90;;;;;;4953408;28;20237;-55
2021/08/22 00:55:34;;;;;;;28.27;25.42;;;18.30;99.90;;;;;;4946425;28;20059;-55
2021/08/22 00:58:04;;;;;;;27.50;24.42;;;18.30;99.90;;;;;;4950962;29;20416;-56
2021/08/22 01:00:31;;;;;;;29.73;26.95;;;18.30;99.90;;;;;;4949921;28;20448;-57
2021/08/22 01:03:17;;;;;;;27.08;24.58;;;18.30;99.90;;;;;;4941802;29;20090;-55
2021/08/22 01:06:12;;;;;;;30.35;27.65;;;18.30;99.90;;;;;;4951811;29;20063;-56
2021/08/22 01:08:42;;;;;;;29.15;26.35;;;18.30;99.90;;;;;;4950399;28;20043;-56
2021/08/22 01:11:15;;;;;;;29.17;26.30;;;18.30;99.90;;;;;;4940131;28;20545;-54
2021/08/22 01:13:47;;;;;;;27.70;24.98;;;18.30;99.90;;;;;;4953419;28;20074;-56
2021/08/22 01:16:18;;;;;;;27.90;25.40;;;18.30;99.90;;;;;;4933067;29;20115;-55
2021/08/22 01:18:46;;;;;;;26.92;24.42;;;18.40;99.90;;;;;;4939840;29;20394;-56
2021/08/22 01:21:19;;;;;;;29.13;26.20;;;18.40;99.90;;;;;;4938327;29;20158;-54
2021/08/22 01:23:57;;;;;;;30.30;27.50;;;18.30;99.90;;;;;;4949703;29;20047;-56
2021/08/22 01:26:29;;;;;;;29.23;26.42;;;18.30;99.90;;;;;;4940943;29;20823;-56
2021/08/22 01:28:58;;;;;;;32.42;29.27;;;18.30;99.90;;;;;;4950277;29;20051;-56
2021/08/22 01:31:39;;;;;;;33.75;30.52;;;18.20;99.90;;;;;;4951563;29;20087;-56
2021/08/22 01:34:07;;;;;;;33.60;30.48;;;18.10;99.90;;;;;;4952246;28;20070;-56
2021/08/22 01:36:35;;;;;;;33.92;30.52;;;18.10;99.90;;;;;;4943034;28;20055;-56
2021/08/22 01:39:06;;;;;;;35.42;32.13;;;18.00;99.90;;;;;;4939943;28;20091;-56
2021/08/22 01:41:39;;;;;;;36.30;33.03;;;17.90;99.90;;;;;;4948809;29;20047;-56
2021/08/22 01:44:09;;;;;;;40.50;36.83;;;17.90;99.90;;;;;;4951285;28;20102;-59
2021/08/22 01:46:37;;;;;;;38.83;35.08;;;17.90;99.90;;;;;;4951262;28;20054;-56
2021/08/22 01:49:05;;;;;;;39.80;36.17;;;17.90;99.90;;;;;;4945752;28;20565;-61
2021/08/22 01:51:33;;;;;;;42.90;38.80;;;17.80;99.90;;;;;;4950845;28;20051;-56
2021/08/22 01:54:04;;;;;;;42.25;38.25;;;17.80;99.90;;;;;;4950457;28;20051;-57
2021/08/22 01:56:33;;;;;;;44.50;39.92;;;17.80;99.90;;;;;;4969565;28;20091;-59
2021/08/22 01:59:01;;;;;;;44.85;40.25;;;17.90;99.90;;;;;;4964321;28;20090;-58
2021/08/22 02:01:28;;;;;;;44.60;40.20;;;17.80;99.90;;;;;;4969880;28;20053;-56
2021/08/22 02:04:35;;;;;;;47.65;42.72;;;17.80;99.90;;;;;;4968974;28;20137;-56
2021/08/22 02:07:12;;;;;;;46.42;41.67;;;17.80;99.90;;;;;;4908015;29;20060;-53
2021/08/22 02:09:52;;;;;;;45.15;40.65;;;17.80;99.90;;;;;;4901309;29;20052;-57
2021/08/22 02:12:20;;;;;;;47.65;42.53;;;17.80;99.90;;;;;;4908528;29;20078;-59
2021/08/22 02:15:04;;;;;;;46.20;41.60;;;17.70;99.90;;;;;;4902086;29;20107;-58
2021/08/22 02:17:42;;;;;;;52.00;45.00;;;17.80;99.90;;;;;;4906571;29;20115;-58
2021/08/22 02:20:11;;;;;;;46.58;41.90;;;17.70;99.90;;;;;;4909889;29;20052;-55
2021/08/22 02:22:42;;;;;;;51.85;46.47;;;17.70;99.90;;;;;;4911359;29;20060;-57
2021/08/22 02:25:09;;;;;;;51.90;46.33;;;17.70;99.90;;;;;;4909293;29;20084;-52
2021/08/22 02:27:37;;;;;;;51.72;45.90;;;17.70;99.90;;;;;;4903625;29;20044;-51
2021/08/22 02:30:04;;;;;;;52.28;45.95;;;17.70;99.90;;;;;;4896850;29;20155;-52
2021/08/22 02:32:33;;;;;;;50.90;44.65;;;17.70;99.90;;;;;;4907361;29;20052;-50
2021/08/22 02:35:00;;;;;;;53.17;46.35;;;17.70;99.90;;;;;;4896281;29;20933;-53
2021/08/22 02:37:31;;;;;;;57.90;47.60;;;17.70;99.90;;;;;;4908607;29;20052;-52
2021/08/22 02:39:57;;;;;;;55.08;48.15;;;17.70;99.90;;;;;;4907611;29;20052;-50
2021/08/22 02:42:28;;;;;;;57.20;50.90;;;17.70;99.90;;;;;;4934884;28;20046;-51
2021/08/22 02:44:58;;;;;;;56.95;47.92;;;17.60;99.90;;;;;;4951842;28;20051;-55
2021/08/22 02:47:24;;;;;;;56.90;48.83;;;17.60;99.90;;;;;;4953999;28;20467;-50
2021/08/22 02:49:50;;;;;;;59.13;49.50;;;17.60;99.90;;;;;;4960144;28;20151;-51
2021/08/22 02:52:17;;;;;;;63.30;52.15;;;17.60;99.90;;;;;;4968756;28;20109;-49
2021/08/22 02:54:46;;;;;;;59.33;49.78;;;17.60;99.90;;;;;;4930393;28;1212186;-51
2021/08/22 02:57:14;;;;;;;55.63;49.00;;;17.60;99.90;;;;;;4971253;28;20366;-53
2021/08/22 02:59:46;;;;;;;57.05;49.67;;;17.60;99.90;;;;;;4955793;28;20050;-49
2021/08/22 03:02:12;;;;;;;;;;;17.60;99.90;;;;;;4954678;28;20083;-50
2021/08/22 03:04:39;;;;;;;57.88;50.33;;;17.50;99.90;;;;;;4967777;28;19961;-47
2021/08/22 03:07:08;;;;;;;68.15;52.15;;;17.50;99.90;;;;;;4965588;28;20106;-49
2021/08/22 03:09:35;;;;;;;57.88;50.13;;;17.50;99.90;;;;;;4968386;28;20404;-50
2021/08/22 03:12:01;;;;;;;55.28;49.33;;;17.50;99.90;;;;;;4969204;28;20525;-49
2021/08/22 03:14:32;;;;;;;56.47;50.35;;;17.50;99.90;;;;;;4969097;28;20439;-54
2021/08/22 03:16:58;;;;;;;55.10;49.13;;;17.50;99.90;;;;;;4968278;28;20054;-49
2021/08/22 03:19:28;;;;;;;59.08;51.42;;;17.50;99.90;;;;;;4961503;28;20054;-50
2021/08/22 03:21:55;;;;;;;64.45;51.63;;;17.50;99.90;;;;;;4968682;28;20756;-53
2021/08/22 03:24:23;;;;;;;82.15;59.47;;;17.50;99.90;;;;;;4963306;28;20051;-54
2021/08/22 03:26:49;;;;;;;60.05;52.25;;;17.50;99.90;;;;;;4968722;28;20489;-51
2021/08/22 03:29:18;;;;;;;68.18;52.95;;;17.50;99.90;;;;;;4964382;28;20673;-52
2021/08/22 03:31:44;;;;;;;89.68;60.28;;;17.50;99.90;;;;;;4972442;28;20562;-49
2021/08/22 03:34:11;;;;;;;85.97;57.10;;;17.50;99.90;;;;;;4959345;28;20474;-50
2021/08/22 03:36:38;;;;;;;70.05;54.53;;;17.50;99.90;;;;;;4968473;28;20062;-48
2021/08/22 03:39:05;;;;;;;78.55;59.85;;;17.50;99.90;;;;;;4967643;28;20042;-49
2021/08/22 03:41:33;;;;;;;90.43;61.80;;;17.50;99.90;;;;;;4967876;28;20411;-47
2021/08/22 03:44:00;;;;;;;92.40;61.35;;;17.50;99.90;;;;;;4964892;28;20491;-48
2021/08/22 03:46:27;;;;;;;96.25;58.88;;;17.50;99.90;;;;;;4963750;28;20146;-48
2021/08/22 03:48:54;;;;;;;74.50;57.67;;;17.40;99.90;;;;;;4964244;28;20114;-48
2021/08/22 03:51:23;;;;;;;91.30;60.35;;;17.40;99.90;;;;;;4962557;28;20051;-48
2021/08/22 03:53:50;;;;;;;82.45;58.97;;;17.40;99.90;;;;;;4965767;28;20085;-45
2021/08/22 03:56:16;;;;;;;81.25;59.83;;;17.30;99.90;;;;;;4962230;28;20062;-48
2021/08/22 03:58:43;;;;;;;75.95;59.25;;;17.30;99.90;;;;;;4968899;28;20130;-47
2021/08/22 04:01:10;;;;;;;78.60;58.42;;;17.30;99.90;;;;;;4955537;28;20051;-48
2021/08/22 04:03:49;;;;;;;73.57;57.00;;;17.30;99.90;;;;;;4969276;28;20047;-46
2021/08/22 04:06:46;;;;;;;79.57;58.50;;;17.30;99.90;;;;;;4949082;28;20066;-47
2021/08/22 04:09:13;;;;;;;66.20;54.53;;;17.20;99.90;;;;;;4962203;28;20051;-49
2021/08/22 04:11:39;;;;;;;70.00;56.80;;;17.30;99.90;;;;;;4967954;28;20597;-47
2021/08/22 04:14:09;;;;;;;69.22;54.90;;;17.30;99.90;;;;;;4959349;28;20051;-48
2021/08/22 04:16:38;;;;;;;91.82;63.55;;;17.30;99.90;;;;;;4948190;29;20051;-47
2021/08/22 04:19:04;;;;;;;70.03;54.78;;;17.30;99.90;;;;;;4954997;28;20051;-46
2021/08/22 04:21:33;;;;;;;68.93;55.95;;;17.30;99.90;;;;;;4967922;28;20046;-49
2021/08/22 04:24:03;;;;;;;82.18;60.97;;;17.30;99.90;;;;;;4964586;28;20051;-46
2021/08/22 04:26:29;;;;;;;61.70;52.42;;;17.40;99.90;;;;;;4969501;28;20059;-48
2021/08/22 04:28:56;;;;;;;83.93;58.53;;;17.30;99.90;;;;;;4950419;28;20756;-47
2021/08/22 04:31:25;;;;;;;109.15;65.32;;;17.30;99.90;;;;;;4966459;28;20065;-46
2021/08/22 04:33:51;;;;;;;126.45;74.45;;;17.30;99.90;;;;;;4962012;28;20237;-54
2021/08/22 04:36:19;;;;;;;140.77;73.40;;;17.30;99.90;;;;;;4968631;28;20189;-49
2021/08/22 04:38:48;;;;;;;204.52;78.22;;;17.30;99.90;;;;;;4949766;28;20148;-48
2021/08/22 04:41:20;;;;;;;173.98;76.35;;;17.20;99.90;;;;;;4968979;28;20137;-48
2021/08/22 04:43:51;;;;;;;206.95;86.53;;;17.20;99.90;;;;;;4966738;28;20096;-48
2021/08/22 04:46:18;;;;;;;135.35;75.72;;;17.20;99.90;;;;;;4968263;28;20428;-49
2021/08/22 04:48:44;;;;;;;144.18;74.70;;;17.20;99.90;;;;;;4949730;28;20133;-45
2021/08/22 04:51:11;;;;;;;133.82;71.53;;;17.20;99.90;;;;;;4968127;28;20105;-47
2021/08/22 04:53:37;;;;;;;142.05;77.70;;;17.20;99.90;;;;;;4967886;28;20530;-47
2021/08/22 04:56:05;;;;;;;144.38;76.70;;;17.10;99.90;;;;;;4964836;28;20067;-51
2021/08/22 04:58:31;;;;;;;106.20;65.30;;;17.20;99.90;;;;;;4963323;28;20054;-47
2021/08/22 05:00:58;;;;;;;96.30;62.35;;;17.20;99.90;;;;;;4961700;28;20070;-47
2021/08/22 05:03:24;;;;;;;101.72;63.72;;;17.20;99.90;;;;;;4954770;28;20051;-47
2021/08/22 05:05:50;;;;;;;82.80;56.65;;;17.10;99.90;;;;;;4962867;28;20043;-49
2021/08/22 05:08:17;;;;;;;119.63;67.10;;;17.10;99.90;;;;;;4961998;28;20078;-48
2021/08/22 05:10:45;;;;;;;88.75;58.05;;;17.10;99.90;;;;;;4949358;28;20058;-48
2021/08/22 05:13:12;;;;;;;92.50;61.35;;;17.20;99.90;;;;;;4955500;28;20097;-47
2021/08/22 05:15:41;;;;;;;103.63;63.85;;;17.10;99.90;;;;;;4968664;28;20058;-49
2021/08/22 05:18:08;;;;;;;96.78;62.45;;;17.10;99.90;;;;;;4967793;28;20059;-49
2021/08/22 05:20:37;;;;;;;110.03;65.30;;;17.20;99.90;;;;;;4966215;28;20058;-51
2021/08/22 05:23:03;;;;;;;113.63;67.28;;;17.20;99.90;;;;;;4971220;28;20132;-51
2021/08/22 05:25:29;;;;;;;78.75;57.38;;;17.20;99.90;;;;;;4967267;28;20885;-50
2021/08/22 05:27:56;;;;;;;114.10;66.22;;;17.20;99.90;;;;;;4967145;28;20062;-46
2021/08/22 05:30:22;;;;;;;97.85;59.50;;;17.30;99.90;;;;;;4960446;28;20100;-47
2021/08/22 05:32:48;;;;;;;78.82;57.22;;;17.20;99.90;;;;;;4957712;28;20051;-53
2021/08/22 05:35:20;;;;;;;78.13;55.92;;;17.20;99.90;;;;;;4953699;28;20062;-52
2021/08/22 05:37:46;;;;;;;84.75;55.85;;;17.20;99.90;;;;;;4957411;28;20082;-49
2021/08/22 05:40:12;;;;;;;78.75;57.15;;;17.10;99.90;;;;;;4949593;28;20126;-51
2021/08/22 05:42:39;;;;;;;114.93;67.13;;;17.10;99.90;;;;;;4954980;28;20098;-50
2021/08/22 05:45:06;;;;;;;89.82;63.13;;;17.10;99.90;;;;;;4962879;28;20404;-53
2021/08/22 05:47:32;;;;;;;88.85;60.55;;;17.10;99.90;;;;;;4952659;29;20062;-52
2021/08/22 05:50:03;;;;;;;136.52;72.63;;;17.20;99.90;;;;;;4971580;28;20403;-49
2021/08/22 05:52:35;;;;;;;144.32;75.00;;;17.20;99.90;;;;;;4963997;28;20055;-52
2021/08/22 05:55:11;;;;;;;153.05;75.32;;;17.20;99.90;;;;;;4970254;28;20648;-49
2021/08/22 05:57:37;;;;;;;114.05;70.30;;;17.20;99.90;;;;;;4956691;28;20055;-53
2021/08/22 06:00:05;;;;;;;156.85;78.43;;;17.20;99.90;;;;;;4963303;28;20051;-53
2021/08/22 06:02:38;;;;;;;186.40;85.53;;;17.10;99.90;;;;;;4970064;28;20097;-53
2021/08/22 06:05:05;;;;;;;126.72;72.53;;;17.10;99.90;;;;;;4964149;28;20117;-49
2021/08/22 06:07:32;;;;;;;189.60;82.47;;;17.10;99.90;;;;;;4971423;28;20050;-48
2021/08/22 06:09:59;;;;;;;191.43;85.57;;;17.20;99.90;;;;;;4967655;28;20546;-51
2021/08/22 06:12:27;;;;;;;204.23;87.35;;;17.10;99.90;;;;;;4956924;28;20492;-48
2021/08/22 06:14:53;;;;;;;123.95;75.03;;;17.20;99.90;;;;;;4954170;28;20054;-53
2021/08/22 06:17:28;;;;;;;130.82;77.00;;;17.20;99.90;;;;;;4952030;29;20055;-52
2021/08/22 06:19:54;;;;;;;117.25;72.93;;;17.20;99.90;;;;;;4949280;28;20051;-50
2021/08/22 06:22:21;;;;;;;115.28;71.07;;;17.20;99.90;;;;;;4952396;28;20574;-50
2021/08/22 06:24:47;;;;;;;113.72;70.43;;;17.20;99.90;;;;;;4955770;28;20583;-51
2021/08/22 06:27:14;;;;;;;96.82;65.15;;;17.20;99.90;;;;;;4965511;28;20046;-50
2021/08/22 06:29:41;;;;;;;105.95;68.60;;;17.20;99.90;;;;;;4959492;28;20559;-50
2021/08/22 06:32:07;;;;;;;128.85;72.57;;;17.20;99.90;;;;;;4961127;28;20105;-50
2021/08/22 06:34:33;;;;;;;116.05;68.38;;;17.20;99.90;;;;;;4956996;28;20106;-52
2021/08/22 06:37:03;;;;;;;105.88;64.63;;;17.20;99.90;;;;;;4970486;28;20050;-54
2021/08/22 06:39:29;;;;;;;123.05;69.78;;;17.20;99.90;;;;;;4954776;28;20069;-50
2021/08/22 06:42:00;;;;;;;88.40;58.53;;;17.20;99.90;;;;;;4972196;28;20113;-48
2021/08/22 06:44:26;;;;;;;102.43;62.85;;;17.20;99.90;;;;;;4969470;28;20432;-50
2021/08/22 06:46:53;;;;;;;105.50;67.05;;;17.20;99.90;;;;;;4964492;28;20567;-53
2021/08/22 06:49:19;;;;;;;114.80;70.85;;;17.20;99.90;;;;;;4958962;28;20074;-54
2021/08/22 06:51:45;;;;;;;116.93;67.88;;;17.20;99.90;;;;;;4947920;28;20054;-53
2021/08/22 06:54:12;;;;;;;100.32;65.32;;;17.20;99.90;;;;;;4964290;28;20630;-54
2021/08/22 06:56:38;;;;;;;108.05;66.32;;;17.20;99.90;;;;;;4957703;28;20059;-53
2021/08/22 06:59:04;;;;;;;113.03;68.43;;;17.20;99.90;;;;;;4961374;28;20488;-57
2021/08/22 07:01:30;;;;;;;112.25;68.65;;;17.20;99.90;;;;;;4960816;28;20553;-58
2021/08/22 07:03:56;;;;;;;104.97;65.60;;;17.30;99.90;;;;;;4964366;28;20048;-54
2021/08/22 07:06:22;;;;;;;92.60;62.13;;;17.20;99.90;;;;;;4961724;28;20065;-51
2021/08/22 07:08:48;;;;;;;91.20;62.13;;;17.20;99.90;;;;;;4952812;28;20165;-54
2021/08/22 07:11:15;;;;;;;102.72;60.85;;;17.30;99.90;;;;;;4953309;28;20055;-53
2021/08/22 07:13:41;;;;;;;86.90;60.33;;;17.30;99.90;;;;;;4967759;28;20066;-53
2021/08/22 07:16:07;;;;;;;88.80;60.05;;;17.30;99.90;;;;;;4934184;28;20066;-52
2021/08/22 07:18:34;;;;;;;109.05;63.03;;;17.30;99.90;;;;;;4955329;28;20513;-54
2021/08/22 07:21:03;;;;;;;94.47;62.20;;;17.30;99.90;;;;;;4969931;28;20102;-54
2021/08/22 07:23:30;;;;;;;89.63;62.28;;;17.30;99.90;;;;;;4971437;28;20047;-54
2021/08/22 07:25:56;;;;;;;82.75;59.08;;;17.20;99.90;;;;;;4968951;28;20047;-52
2021/08/22 07:28:25;;;;;;;83.15;59.33;;;17.20;99.90;;;;;;4966889;28;20057;-54
2021/08/22 07:30:51;;;;;;;88.88;60.30;;;17.20;99.90;;;;;;4967079;28;20856;-55
2021/08/22 07:33:18;;;;;;;102.57;62.72;;;17.20;99.90;;;;;;4968960;28;20051;-54
2021/08/22 07:35:44;;;;;;;90.53;62.03;;;17.20;99.90;;;;;;4953106;28;20059;-53
2021/08/22 07:38:10;;;;;;;78.97;56.83;;;17.30;99.90;;;;;;4969063;28;20062;-54
2021/08/22 07:40:39;;;;;;;83.20;58.35;;;17.30;99.90;;;;;;4968764;28;20055;-54
2021/08/22 07:43:05;;;;;;;77.55;56.28;;;17.40;99.90;;;;;;4956057;28;20106;-52
2021/08/22 07:45:31;;;;;;;70.65;55.17;;;17.50;99.90;;;;;;4966635;28;20090;-55
2021/08/22 07:47:57;;;;;;;57.03;48.33;;;17.50;99.90;;;;;;4963910;28;20054;-48
2021/08/22 07:50:23;;;;;;;61.65;50.53;;;17.50;99.90;;;;;;4965513;28;20403;-55
2021/08/22 07:52:50;;;;;;;57.80;49.45;;;17.50;99.90;;;;;;4961294;28;20121;-54
2021/08/22 07:55:16;;;;;;;61.92;51.60;;;17.60;99.90;;;;;;4950897;28;20543;-55
2021/08/22 07:57:42;;;;;;;63.45;50.22;;;17.60;99.90;;;;;;4962784;28;20049;-55
2021/08/22 08:00:13;;;;;;;53.58;47.05;;;17.70;99.90;;;;;;4964235;28;20043;-53
2021/08/22 08:02:39;;;;;;;54.63;48.28;;;17.80;99.90;;;;;;4932655;29;20077;-55
2021/08/22 08:05:06;;;;;;;50.60;44.83;;;17.70;99.90;;;;;;4949690;28;20055;-56
2021/08/22 08:07:32;;;;;;;56.42;48.90;;;17.80;99.90;;;;;;4950917;28;20055;-55
2021/08/22 08:09:59;;;;;;;59.83;48.80;;;17.70;99.90;;;;;;4950215;28;20055;-52
2021/08/22 08:12:28;;;;;;;58.03;47.25;;;17.80;99.90;;;;;;4966061;28;20114;-54
2021/08/22 08:14:58;;;;;;;52.70;45.72;;;17.70;99.90;;;;;;4968886;28;20055;-55
2021/08/22 08:17:24;;;;;;;56.63;48.60;;;17.70;99.90;;;;;;4936253;28;20500;-54
2021/08/22 08:19:51;;;;;;;69.05;53.55;;;17.70;99.90;;;;;;4943428;28;20055;-55
2021/08/22 08:22:19;;;;;;;48.83;43.70;;;17.90;99.90;;;;;;4964915;28;20065;-55
2021/08/22 08:24:46;;;;;;;50.25;44.80;;;18.10;99.90;;;;;;4961389;28;20134;-54
2021/08/22 08:27:12;;;;;;;45.90;40.90;;;18.40;99.90;;;;;;4965258;28;20111;-54
2021/08/22 08:29:38;;;;;;;40.17;36.15;;;18.80;99.90;;;;;;4962187;28;20141;-56
2021/08/22 08:32:05;;;;;;;27.85;25.38;;;19.10;99.90;;;;;;4950784;28;20075;-57
2021/08/22 08:34:31;;;;;;;24.65;22.35;;;19.20;99.90;;;;;;4953891;28;20142;-55
2021/08/22 08:36:57;;;;;;;23.70;21.58;;;19.20;99.90;;;;;;4960917;28;20055;-56
2021/08/22 08:39:23;;;;;;;24.10;21.85;;;19.20;99.90;;;;;;4969389;28;20153;-56
2021/08/22 08:41:49;;;;;;;20.63;18.83;;;19.30;99.90;;;;;;4952443;28;20051;-57
2021/08/22 08:44:30;;;;;;;18.05;16.45;;;19.10;99.90;;;;;;4957992;28;20059;-55
2021/08/22 08:47:02;;;;;;;19.15;17.38;;;18.70;99.90;;;;;;4960048;28;20113;-56
2021/08/22 08:49:38;;;;;;;;;;;18.50;99.90;;;;;;4971455;28;20039;-56
2021/08/22 08:52:20;;;;;;;22.42;20.38;;;18.30;99.90;;;;;;4958613;28;19961;-50
2021/08/22 08:54:48;;;;;;;;;;;18.20;99.90;;;;;;4955261;28;20532;-56
2021/08/22 08:57:16;;;;;;;28.55;26.15;;;18.00;99.90;;;;;;4950255;28;19933;-56
2021/08/22 08:59:42;;;;;;;29.55;27.00;;;18.10;99.90;;;;;;4968743;28;20098;-55
2021/08/22 09:02:09;;;;;;;32.00;29.30;;;18.10;99.90;;;;;;4949699;28;20487;-53
2021/08/22 09:05:08;;;;;;;33.92;30.92;;;18.00;99.90;;;;;;4950526;28;20078;-56
2021/08/22 09:08:02;;;;;;;35.15;31.90;;;18.10;99.90;;;;;;4954717;28;20046;-53
2021/08/22 09:11:18;;;;;;;34.33;31.27;;;18.30;99.90;;;;;;4967531;28;20057;-57
2021/08/22 09:14:23;;;;;;;34.50;31.70;;;18.40;99.90;;;;;;4970747;28;20043;-54
2021/08/22 09:17:27;;;;;;;35.75;32.95;;;18.80;99.90;;;;;;4970980;28;20051;-56
2021/08/22 09:20:29;;;;;;;31.50;28.98;;;19.40;99.90;;;;;;4971363;28;20051;-57
2021/08/22 09:23:26;;;;;;;23.10;21.30;;;19.80;99.90;;;;;;4893137;29;20101;-57
2021/08/22 09:26:29;;;;;;;24.80;22.63;;;19.90;99.90;;;;;;4892791;29;20227;-57
2021/08/22 09:29:32;;;;;;;24.00;22.10;;;20.10;99.90;;;;;;4884565;29;20845;-58
2021/08/22 09:32:35;;;;;;;27.33;25.00;;;19.80;99.90;;;;;;4892527;29;20421;-58
2021/08/22 09:35:37;;;;;;;22.80;20.90;;;19.70;99.90;;;;;;4892637;29;20057;-59
2021/08/22 09:38:25;;;;;;;21.80;20.05;;;19.50;99.90;;;;;;4897767;29;20053;-59
2021/08/22 09:41:28;;;;;;;22.35;20.55;;;19.50;99.90;;;;;;4892468;29;20049;-60
2021/08/22 09:44:31;;;;;;;20.95;19.13;;;19.70;99.90;;;;;;4888351;29;20086;-59
2021/08/22 09:47:12;;;;;;;21.45;19.63;;;19.70;99.90;;;;;;4880484;29;20065;-58
2021/08/22 09:50:18;;;;;;;21.02;19.33;;;19.70;99.90;;;;;;4888041;29;20506;-59
2021/08/22 09:53:17;;;;;;;19.23;17.63;;;19.70;99.90;;;;;;4892257;29;20055;-59
2021/08/22 09:55:58;;;;;;;17.27;15.85;;;19.80;99.90;;;;;;4876045;29;20514;-58
2021/08/22 09:58:55;;;;;;;15.82;14.48;;;20.30;99.90;;;;;;4918081;29;20128;-54
2021/08/22 10:01:34;;;;;;;13.75;12.55;;;20.10;99.90;;;;;;4966167;28;20097;-56
2021/08/22 10:04:32;;;;;;;14.95;13.70;;;19.90;99.90;;;;;;4959373;28;20043;-57
2021/08/22 10:07:28;;;;;;;13.73;12.55;;;19.50;99.90;;;;;;4883551;29;20857;-54
2021/08/22 10:10:14;;;;;;;12.30;11.18;;;19.40;99.90;;;;;;4894105;29;20819;-57
2021/08/22 10:12:40;;;;;;;13.85;12.65;;;19.20;99.90;;;;;;4891962;29;20064;-57
2021/08/22 10:15:08;;;;;;;14.07;12.93;;;19.10;99.90;;;;;;4888141;29;20149;-56
2021/08/22 10:17:38;;;;;;;13.90;12.70;;;19.10;99.90;;;;;;4897890;29;20061;-59
2021/08/22 10:20:04;;;;;;;13.27;12.07;;;19.50;99.90;;;;;;4892150;29;20389;-55
2021/08/22 10:22:33;;;;;;;13.23;12.00;;;20.20;99.90;;;;;;4893215;29;20056;-58
2021/08/22 10:25:03;;;;;;;12.05;11.02;;;20.70;99.90;;;;;;4900045;29;20631;-55
2021/08/22 10:27:30;;;;;;;12.10;11.10;;;20.90;99.90;;;;;;4899011;29;20063;-54
2021/08/22 10:30:02;;;;;;;8.25;7.45;;;21.40;99.90;;;;;;4898276;29;20521;-59
2021/08/22 10:32:34;;;;;;;9.38;8.48;;;21.20;99.90;;;;;;4892645;29;20075;-54
2021/08/22 10:35:12;;;;;;;15.90;14.45;;;21.00;99.90;;;;;;4892019;29;20068;-56
2021/08/22 10:37:42;;;;;;;11.43;10.23;;;21.10;99.90;;;;;;4898632;29;20165;-56
2021/08/22 10:40:24;;;;;;;12.57;11.37;;;21.00;99.90;;;;;;4888160;29;20320;-56
2021/08/22 10:43:10;;;;;;;12.73;11.57;;;21.60;99.90;;;;;;4920601;28;20062;-53
2021/08/22 10:45:47;;;;;;;14.77;13.38;;;22.30;99.90;;;;;;4961182;28;20055;-53
2021/08/22 10:48:25;;;;;;;13.27;12.07;;;22.90;99.90;;;;;;4957699;28;20051;-54
2021/08/22 10:50:57;;;;;;;12.57;11.48;;;23.10;99.90;;;;;;4963050;28;20047;-55
2021/08/22 10:53:23;;;;;;;12.77;11.57;;;22.70;99.90;;;;;;4951693;28;20074;-56
2021/08/22 10:55:51;;;;;;;12.13;11.02;;;22.70;99.90;;;;;;4952781;28;20063;-55
2021/08/22 10:58:17;;;;;;;11.80;10.70;;;22.80;99.90;;;;;;4969667;28;20115;-54
2021/08/22 11:00:44;;;;;;;11.32;10.32;;;23.20;99.90;;;;;;4957071;28;20042;-54
2021/08/22 11:03:21;;;;;;;12.63;11.52;;;23.10;99.90;;;;;;4970415;28;20055;-53
2021/08/22 11:05:48;;;;;;;11.70;10.57;;;22.60;99.90;;;;;;4969817;28;20055;-55
2021/08/22 11:08:23;;;;;;;13.70;12.40;;;21.90;99.90;;;;;;4955417;28;20058;-52
2021/08/22 11:11:06;;;;;;;15.38;13.80;;;21.70;99.90;;;;;;4951103;28;20107;-55
2021/08/22 11:13:41;;;;;;;15.23;13.82;;;21.70;99.90;;;;;;4962848;28;20055;-54
2021/08/22 11:16:09;;;;;;;15.38;13.88;;;21.70;99.90;;;;;;4969272;28;20051;-53
2021/08/22 11:18:37;;;;;;;15.45;14.02;;;21.40;99.90;;;;;;4963414;28;20388;-51
2021/08/22 11:21:04;;;;;;;16.08;14.00;;;21.50;99.90;;;;;;4966136;28;20109;-53
2021/08/22 11:23:30;;;;;;;15.23;13.75;;;21.50;99.90;;;;;;4958812;28;20047;-55
2021/08/22 11:26:05;;;;;;;17.08;15.48;;;21.60;99.90;;;;;;4969799;28;20124;-56
2021/08/22 11:28:32;;;;;;;17.50;15.88;;;21.50;99.90;;;;;;4969386;28;20053;-50
2021/08/22 11:30:58;;;;;;;14.10;12.80;;;21.50;99.90;;;;;;4961457;28;20082;-50
2021/08/22 11:33:29;;;;;;;11.10;9.85;;;21.70;99.90;;;;;;4961308;28;20051;-58
2021/08/22 11:35:56;;;;;;;13.80;12.40;;;22.40;99.90;;;;;;4944051;28;20058;-60
2021/08/22 11:38:22;;;;;;;41.28;37.53;;;22.60;99.90;;;;;;4936895;28;20066;-62
2021/08/22 11:41:01;;;;;;;17.25;15.60;;;22.50;99.90;;;;;;4959355;28;20058;-61
2021/08/22 11:43:27;;;;;;;13.10;11.90;;;22.30;99.90;;;;;;4955456;28;20630;-61
2021/08/22 11:45:53;;;;;;;8.65;7.80;;;22.60;99.90;;;;;;4957835;28;20491;-62
2021/08/22 11:48:24;;;;;;;12.05;10.95;;;22.50;99.90;;;;;;4954153;28;20047;-61
2021/08/22 11:50:51;;;;;;;8.80;7.55;;;23.10;99.90;;;;;;4953820;28;20082;-58
2021/08/22 11:53:27;;;;;;;10.45;9.52;;;23.30;99.90;;;;;;4968515;28;20054;-57
2021/08/22 11:55:53;;;;;;;10.38;9.27;;;23.50;99.90;;;;;;4967717;28;20078;-60
2021/08/22 11:58:20;;;;;;;10.05;9.07;;;24.10;99.90;;;;;;4954278;28;20234;-60
2021/08/22 12:00:52;;;;;;;12.73;11.52;;;23.70;99.90;;;;;;4967812;28;20550;-55
2021/08/22 12:03:25;;;;;;;21.50;19.52;;;24.10;99.90;;;;;;4966777;28;20054;-60
2021/08/22 12:06:01;;;;;;;11.57;10.40;;;24.50;99.90;;;;;;4967166;28;20092;-60
2021/08/22 12:08:29;;;;;;;19.67;17.88;;;24.50;99.90;;;;;;4972444;28;20043;-61
2021/08/22 12:11:09;;;;;;;9.13;7.57;;;24.30;99.90;;;;;;4964469;28;20055;-60
2021/08/22 12:13:37;;;;;;;8.27;7.53;;;24.50;99.90;;;;;;4965090;28;20081;-59
2021/08/22 12:16:23;;;;;;;12.10;10.95;;;24.00;99.90;;;;;;4962978;28;20135;-60
2021/08/22 12:18:50;;;;;;;9.20;8.30;;;23.80;99.90;;;;;;4950657;28;20808;-59
2021/08/22 12:21:18;;;;;;;10.48;9.48;;;23.70;99.90;;;;;;4968252;28;20050;-59
2021/08/22 12:23:47;;;;;;;8.45;7.50;;;23.50;99.90;;;;;;4958146;28;20051;-56
2021/08/22 12:26:22;;;;;;;11.07;9.82;;;23.70;99.90;;;;;;4954902;28;20130;-59
2021/08/22 12:28:51;;;;;;;18.08;16.38;;;24.00;99.90;;;;;;4968848;28;20055;-61
2021/08/22 12:31:18;;;;;;;9.27;8.38;;;23.80;99.90;;;;;;4967100;28;20054;-61
2021/08/22 12:33:52;;;;;;;6.70;5.57;;;23.90;99.90;;;;;;4967206;28;20055;-57
2021/08/22 12:36:22;;;;;;;5.65;5.05;;;23.40;99.90;;;;;;4966874;28;20054;-61
2021/08/22 12:38:58;;;;;;;12.40;11.20;;;22.90;99.90;;;;;;4968904;28;20073;-59
2021/08/22 12:41:44;;;;;;;10.35;8.40;;;22.80;99.90;;;;;;4970901;28;20046;-56
2021/08/22 12:44:13;;;;;;;9.48;8.38;;;22.50;99.90;;;;;;4968051;28;20133;-56
2021/08/22 12:46:40;;;;;;;11.73;9.98;;;22.20;99.90;;;;;;4968059;28;21024;-56
2021/08/22 12:49:09;;;;;;;10.95;9.65;;;22.00;99.90;;;;;;4970513;28;20806;-56